PTKKPTPN

Guest
Details From PTKK - Chukk Intl
To PTPN - POHNPEI INTL
Flight Number -
Tags generated
Created
Modified
Stats Distance 381 nm / 706 km
Max Altitude 17,000 ft / 5,182 m
Waypoints 4
Social Downloads 2
Likes 0
Share VATSIM

Download

Looking for another format? Having issues loading an existing format? Contact us
Advertisement - Login to hide

Notes

Basic altitude profile: - Ascent Rate: 1800ft/min - Ascent Speed: 200kts - Cruise Altitude: 20000ft - Cruise Speed: 300kts - Descent Rate: 1500ft/min - Descent Speed: 200kts Options: - Use NATs: yes - Use PACOTS: yes - Use low airways: yes - Use high airways: yes

Route

PTKK TKK R584 PNI PTPN

ID Type Via Altitude Latitude Longitude Leg Dist Tot Dist Heading (true) Name
O PTKK APT - 0 ft / 0 m 7.46189˚ 151.84302˚ - 0 nm - Chukk Intl
TKK NDB - 100 ft / 30 m 7.45717˚ 151.84050˚ 0 nm 0 nm 208° / 208° TRUK NDB
PNI NDB R584 (AWY-LO) 17,000 ft / 5,182 m 6.97197˚ 158.18497˚ 379 nm 379 nm 94° / 95° POHNPEI NDB
O PTPN APT - 0 ft / 0 m 6.98523˚ 158.20910˚ 1 nm 381 nm 61° / 61° POHNPEI INTL

Altitude Profile

Advertisement - Login to hide

Weather


0- 5 10 15 20 25 30 35+ Temperature / ° C

Clouds and Precipitation
Forecast for 2017-12-12 06:00 UTC. Updated 3 minutes ago

Ground ~20,000 ft ~40,000 ft Winds

PTKK

Details ICAO PTKK (TKK)
Name Chukk Intl
Region Federated States of Micronesia, Palau
Timezone Pacific/Chuuk (UTC+10.0)
Stats Elevation 11 ft / 3 m (AMSL)
Location 7.461893° 151.843022°
Runways 1
Magnetic Variation 4.054° E

METAR

PTKK 120252Z VRB05KT 15SM FEW014 SCT120 BKN280 31/28 A2972 RMK SLP066 8/171 T03110283 57029

Decode

TAF

TAF PTKK 112334Z 1200/1224 08011KT P6SM VCSH SCT014 SCT040 BKN100

Decode

Departure Runways

ID Width Length Bearing (true) Bearing (mag) Surface Threshold Offset Overrun Length
04 151 ft / 46 m 6,019 ft / 1,835 m 45.81° 41.76° Asphalt 0 ft / 0 m 194 ft / 59 m
22 151 ft / 46 m 6,019 ft / 1,835 m 225.81° 221.76° Asphalt 0 ft / 0 m 194 ft / 59 m

PTPN

Details ICAO PTPN (PNI)
Name POHNPEI INTL
Region Federated States of Micronesia, Palau
Timezone Pacific/Pohnpei (UTC+11.0)
Stats Elevation 10 ft / 3 m (AMSL)
Location 6.985226° 158.209103°
Runways 1
Magnetic Variation 5.761° E

METAR

PTPN 120250Z 09007KT 15SM BKN018TCU BKN130 OVC300 30/26 A2974 RMK TCU SE-SW

Decode

TAF

TAF PTPN 112334Z 1200/1224 10011KT P6SM VCSH SCT017 BKN130 TEMPO 1200/1201 3SM SHRA BKN017

Decode

Destination Runways

ID Width Length Bearing (true) Bearing (mag) Surface Threshold Offset Overrun Length
09 151 ft / 46 m 6,023 ft / 1,836 m 90.31° 84.55° Asphalt 0 ft / 0 m 69 ft / 21 m
27 151 ft / 46 m 6,023 ft / 1,836 m 270.32° 264.56° Asphalt 0 ft / 0 m 69 ft / 21 m

Popular Alternatives